DLHPA14 EDDM-EDDF
Flight info
| Callsign | DLHPA14 |
|---|---|
| Flight time | 0h 45m |
| Altitude | 24000 |
| Route | GIVMI6Q GIVMI Y101 ERNAS T161 DEBHI DEBHI1B |
| Aircraft | A339/H-SADE1E2E3GHIJ3J5M1P2RWXY/LB2D1 |
Departure
| Time | 2026-04-17 12:43 |
|---|---|
| Airport | Munich Airport (EDDM) |
Arrival
| Time | 2026-04-17 13:29 |
|---|---|
| Airport | Frankfurt Main Airport (EDDF) |
| Time | Latitude | Longitude | Altitude | Speed | Heading |
|---|---|---|---|---|---|
| 2026-04-17 12:20 | 48.35206 | 11.79336 | 1484 ft | 0 kts | 263° |
| 2026-04-17 12:30 | 48.35207 | 11.79340 | 1484 ft | 2 kts | 263° |
| 2026-04-17 12:30 | 48.35209 | 11.79367 | 1479 ft | 3 kts | 263° |
| 2026-04-17 12:31 | 48.35212 | 11.79397 | 1466 ft | 3 kts | 264° |
| 2026-04-17 12:31 | 48.35213 | 11.79427 | 1471 ft | 3 kts | 270° |
| 2026-04-17 12:31 | 48.35214 | 11.79457 | 1469 ft | 3 kts | 282° |
| 2026-04-17 12:31 | 48.35211 | 11.79483 | 1471 ft | 3 kts | 309° |
| 2026-04-17 12:32 | 48.35206 | 11.79499 | 1469 ft | 2 kts | 347° |
| 2026-04-17 12:32 | 48.35203 | 11.79501 | 1469 ft | 0 kts | 353° |
| 2026-04-17 12:35 | 48.35205 | 11.79500 | 1469 ft | 2 kts | 353° |
| 2026-04-17 12:35 | 48.35251 | 11.79492 | 1476 ft | 11 kts | 353° |
| 2026-04-17 12:37 | 48.36018 | 11.79328 | 1469 ft | 19 kts | 353° |
| 2026-04-17 12:37 | 48.36087 | 11.79263 | 1465 ft | 7 kts | 285° |
| 2026-04-17 12:38 | 48.36080 | 11.79148 | 1473 ft | 15 kts | 263° |
| 2026-04-17 12:38 | 48.36065 | 11.78957 | 1467 ft | 22 kts | 264° |
| 2026-04-17 12:38 | 48.36047 | 11.78695 | 1469 ft | 28 kts | 263° |
| 2026-04-17 12:38 | 48.36022 | 11.78379 | 1469 ft | 33 kts | 264° |
| 2026-04-17 12:39 | 48.35995 | 11.78013 | 1475 ft | 36 kts | 263° |
| 2026-04-17 12:39 | 48.35965 | 11.77618 | 1480 ft | 40 kts | 263° |
| 2026-04-17 12:39 | 48.35936 | 11.77259 | 1476 ft | 25 kts | 263° |
| 2026-04-17 12:39 | 48.35954 | 11.77050 | 1468 ft | 10 kts | 307° |
| 2026-04-17 12:40 | 48.35985 | 11.76970 | 1471 ft | 11 kts | 294° |
| 2026-04-17 12:40 | 48.36005 | 11.76867 | 1475 ft | 11 kts | 293° |
| 2026-04-17 12:40 | 48.36087 | 11.76807 | 1471 ft | 17 kts | 352° |
| 2026-04-17 12:40 | 48.36136 | 11.76800 | 1479 ft | 0 kts | 355° |
| 2026-04-17 12:41 | 48.36137 | 11.76800 | 1479 ft | 2 kts | 355° |
| 2026-04-17 12:41 | 48.36204 | 11.76795 | 1481 ft | 15 kts | 357° |
| 2026-04-17 12:41 | 48.36282 | 11.76844 | 1467 ft | 10 kts | 60° |
| 2026-04-17 12:41 | 48.36289 | 11.76898 | 1472 ft | 0 kts | 84° |
| 2026-04-17 12:43 | 48.36290 | 11.76919 | 1473 ft | 8 kts | 84° |
| 2026-04-17 12:43 | 48.36328 | 11.77394 | 1478 ft | 101 kts | 83° |
| 2026-04-17 12:43 | 48.36452 | 11.78902 | 1718 ft | 168 kts | 82° |
| 2026-04-17 12:43 | 48.36587 | 11.80692 | 2876 ft | 176 kts | 83° |
| 2026-04-17 12:44 | 48.36737 | 11.82563 | 3989 ft | 187 kts | 83° |
| 2026-04-17 12:44 | 48.36900 | 11.84572 | 4976 ft | 201 kts | 83° |
| 2026-04-17 12:44 | 48.37288 | 11.86711 | 5683 ft | 225 kts | 62° |
| 2026-04-17 12:44 | 48.38398 | 11.88492 | 6327 ft | 246 kts | 34° |
| 2026-04-17 12:45 | 48.40079 | 11.89348 | 6841 ft | 268 kts | 7° |
| 2026-04-17 12:45 | 48.41945 | 11.89013 | 7131 ft | 279 kts | 342° |
| 2026-04-17 12:45 | 48.43608 | 11.87466 | 7219 ft | 281 kts | 316° |
| 2026-04-17 12:45 | 48.44680 | 11.85025 | 7217 ft | 283 kts | 294° |
| 2026-04-17 12:46 | 48.45445 | 11.82341 | 7218 ft | 282 kts | 300° |
| 2026-04-17 12:46 | 48.46715 | 11.80125 | 7225 ft | 278 kts | 323° |
| 2026-04-17 12:46 | 48.48433 | 11.78842 | 7210 ft | 276 kts | 346° |
| 2026-04-17 12:46 | 48.50324 | 11.78667 | 7228 ft | 276 kts | 4° |
| 2026-04-17 12:47 | 48.52231 | 11.78431 | 7222 ft | 278 kts | 345° |
| 2026-04-17 12:47 | 48.53925 | 11.77036 | 7197 ft | 278 kts | 320° |
| 2026-04-17 12:47 | 48.55218 | 11.74814 | 7412 ft | 285 kts | 307° |
| 2026-04-17 12:47 | 48.56359 | 11.72349 | 8443 ft | 284 kts | 306° |
| 2026-04-17 12:48 | 48.57520 | 11.69933 | 9322 ft | 285 kts | 308° |
| 2026-04-17 12:48 | 48.58742 | 11.67575 | 9824 ft | 286 kts | 310° |
| 2026-04-17 12:48 | 48.60013 | 11.65266 | 10057 ft | 286 kts | 311° |
| 2026-04-17 12:48 | 48.61306 | 11.62976 | 10191 ft | 287 kts | 312° |
| 2026-04-17 12:49 | 48.62609 | 11.60686 | 10209 ft | 287 kts | 312° |
| 2026-04-17 12:49 | 48.63918 | 11.58385 | 10211 ft | 293 kts | 311° |
| 2026-04-17 12:49 | 48.65281 | 11.55997 | 10212 ft | 317 kts | 311° |
| 2026-04-17 12:49 | 48.66764 | 11.53390 | 10208 ft | 330 kts | 311° |
| 2026-04-17 12:50 | 48.68243 | 11.50776 | 10210 ft | 319 kts | 311° |
| 2026-04-17 12:50 | 48.69652 | 11.48282 | 10213 ft | 301 kts | 311° |
| 2026-04-17 12:50 | 48.70973 | 11.45934 | 10217 ft | 290 kts | 311° |
| 2026-04-17 12:50 | 48.72321 | 11.43540 | 10210 ft | 309 kts | 311° |
| 2026-04-17 12:51 | 48.73766 | 11.40992 | 10215 ft | 330 kts | 311° |
| 2026-04-17 12:51 | 48.75254 | 11.38355 | 10207 ft | 321 kts | 311° |
| 2026-04-17 12:51 | 48.76648 | 11.35871 | 10208 ft | 295 kts | 311° |
| 2026-04-17 12:51 | 48.77954 | 11.33555 | 10209 ft | 290 kts | 311° |
| 2026-04-17 12:52 | 48.79286 | 11.31186 | 10221 ft | 303 kts | 311° |
| 2026-04-17 12:52 | 48.80696 | 11.28675 | 10396 ft | 324 kts | 311° |
| 2026-04-17 12:52 | 48.82169 | 11.26055 | 11072 ft | 333 kts | 311° |
| 2026-04-17 12:52 | 48.83678 | 11.23361 | 12006 ft | 335 kts | 311° |
| 2026-04-17 12:53 | 48.85280 | 11.20761 | 12844 ft | 339 kts | 317° |
| 2026-04-17 12:53 | 48.87046 | 11.18336 | 13736 ft | 342 kts | 318° |
| 2026-04-17 12:53 | 48.88822 | 11.15888 | 14548 ft | 345 kts | 317° |
| 2026-04-17 12:53 | 48.90605 | 11.13419 | 15336 ft | 348 kts | 317° |
| 2026-04-17 12:54 | 48.92382 | 11.10945 | 16121 ft | 351 kts | 317° |
| 2026-04-17 12:54 | 48.93577 | 11.09276 | 16627 ft | 353 kts | 317° |
| 2026-04-17 12:54 | 48.95400 | 11.06731 | 17388 ft | 356 kts | 317° |
| 2026-04-17 12:54 | 48.97835 | 11.03327 | 18404 ft | 360 kts | 317° |
| 2026-04-17 12:55 | 48.99686 | 11.00735 | 19081 ft | 363 kts | 317° |
| 2026-04-17 12:55 | 49.00952 | 10.98961 | 19522 ft | 366 kts | 317° |
| 2026-04-17 12:55 | 49.02819 | 10.96338 | 19990 ft | 369 kts | 317° |
| 2026-04-17 12:55 | 49.04709 | 10.93682 | 20166 ft | 369 kts | 317° |
| 2026-04-17 12:56 | 49.06606 | 10.91012 | 20228 ft | 370 kts | 317° |
| 2026-04-17 12:56 | 49.08478 | 10.88373 | 20222 ft | 370 kts | 317° |
| 2026-04-17 12:56 | 49.10358 | 10.85717 | 20228 ft | 370 kts | 317° |
| 2026-04-17 12:56 | 49.12261 | 10.83027 | 20238 ft | 370 kts | 317° |
| 2026-04-17 12:57 | 49.14149 | 10.80355 | 20252 ft | 370 kts | 317° |
| 2026-04-17 12:57 | 49.16041 | 10.77672 | 20229 ft | 371 kts | 317° |
| 2026-04-17 12:57 | 49.17931 | 10.74990 | 20254 ft | 371 kts | 317° |
| 2026-04-17 12:57 | 49.19812 | 10.72318 | 20254 ft | 371 kts | 317° |
| 2026-04-17 12:58 | 49.21650 | 10.69585 | 20255 ft | 371 kts | 315° |
| 2026-04-17 12:58 | 49.23436 | 10.66756 | 20240 ft | 371 kts | 314° |
| 2026-04-17 12:58 | 49.25226 | 10.63873 | 20238 ft | 371 kts | 314° |
| 2026-04-17 12:58 | 49.27011 | 10.61009 | 20240 ft | 371 kts | 314° |
| 2026-04-17 12:59 | 49.28801 | 10.58156 | 20262 ft | 371 kts | 314° |
| 2026-04-17 12:59 | 49.30576 | 10.55345 | 20241 ft | 371 kts | 314° |
| 2026-04-17 12:59 | 49.32379 | 10.52495 | 20233 ft | 371 kts | 314° |
| 2026-04-17 12:59 | 49.34184 | 10.49646 | 20232 ft | 371 kts | 314° |
| 2026-04-17 13:00 | 49.35950 | 10.46766 | 20221 ft | 370 kts | 310° |
| 2026-04-17 13:00 | 49.37499 | 10.43599 | 20220 ft | 371 kts | 305° |
| 2026-04-17 13:00 | 49.38965 | 10.40334 | 20224 ft | 371 kts | 305° |
| 2026-04-17 13:00 | 49.40442 | 10.37079 | 20212 ft | 371 kts | 305° |
| 2026-04-17 13:01 | 49.41901 | 10.33876 | 20231 ft | 371 kts | 305° |
| 2026-04-17 13:01 | 49.43382 | 10.30625 | 20230 ft | 372 kts | 305° |
| 2026-04-17 13:01 | 49.44870 | 10.27358 | 20205 ft | 372 kts | 305° |
| 2026-04-17 13:01 | 49.46350 | 10.24103 | 20219 ft | 371 kts | 305° |
| 2026-04-17 13:02 | 49.47830 | 10.20844 | 20222 ft | 372 kts | 305° |
| 2026-04-17 13:02 | 49.49314 | 10.17574 | 20201 ft | 372 kts | 305° |
| 2026-04-17 13:02 | 49.50798 | 10.14300 | 20225 ft | 372 kts | 305° |
| 2026-04-17 13:02 | 49.52255 | 10.11078 | 20207 ft | 372 kts | 305° |
| 2026-04-17 13:03 | 49.53733 | 10.07805 | 20205 ft | 372 kts | 305° |
| 2026-04-17 13:03 | 49.55214 | 10.04521 | 20223 ft | 372 kts | 305° |
| 2026-04-17 13:03 | 49.56695 | 10.01233 | 20203 ft | 372 kts | 305° |
| 2026-04-17 13:03 | 49.58170 | 9.97958 | 20199 ft | 372 kts | 305° |
| 2026-04-17 13:04 | 49.59646 | 9.94676 | 20221 ft | 373 kts | 305° |
| 2026-04-17 13:04 | 49.61153 | 9.91319 | 20074 ft | 385 kts | 305° |
| 2026-04-17 13:04 | 49.62676 | 9.87923 | 19701 ft | 383 kts | 304° |
| 2026-04-17 13:04 | 49.64185 | 9.84554 | 19343 ft | 380 kts | 304° |
| 2026-04-17 13:05 | 49.65685 | 9.81201 | 18988 ft | 379 kts | 304° |
| 2026-04-17 13:05 | 49.67162 | 9.77892 | 18648 ft | 377 kts | 304° |
| 2026-04-17 13:05 | 49.68652 | 9.74554 | 18250 ft | 376 kts | 304° |
| 2026-04-17 13:05 | 49.70135 | 9.71241 | 17849 ft | 374 kts | 304° |
| 2026-04-17 13:06 | 49.71611 | 9.67935 | 17327 ft | 372 kts | 304° |
| 2026-04-17 13:06 | 49.73081 | 9.64636 | 16590 ft | 370 kts | 304° |
| 2026-04-17 13:06 | 49.74521 | 9.61389 | 15921 ft | 362 kts | 304° |
| 2026-04-17 13:06 | 49.75928 | 9.58214 | 15371 ft | 363 kts | 304° |
| 2026-04-17 13:07 | 49.77356 | 9.54988 | 14802 ft | 362 kts | 304° |
| 2026-04-17 13:07 | 49.78775 | 9.51778 | 14210 ft | 358 kts | 304° |
| 2026-04-17 13:07 | 49.80172 | 9.48613 | 13640 ft | 357 kts | 304° |
| 2026-04-17 13:07 | 49.81571 | 9.45443 | 13070 ft | 353 kts | 304° |
| 2026-04-17 13:08 | 49.82928 | 9.42359 | 12288 ft | 348 kts | 304° |
| 2026-04-17 13:08 | 49.84283 | 9.39280 | 11349 ft | 344 kts | 304° |
| 2026-04-17 13:08 | 49.85586 | 9.36183 | 10384 ft | 340 kts | 301° |
| 2026-04-17 13:08 | 49.86962 | 9.33310 | 9930 ft | 322 kts | 312° |
| 2026-04-17 13:09 | 49.88439 | 9.30935 | 9672 ft | 298 kts | 314° |
| 2026-04-17 13:09 | 49.89855 | 9.28668 | 9228 ft | 281 kts | 314° |
| 2026-04-17 13:09 | 49.91193 | 9.26531 | 8486 ft | 278 kts | 314° |
| 2026-04-17 13:09 | 49.92544 | 9.24379 | 7716 ft | 277 kts | 314° |
| 2026-04-17 13:10 | 49.93878 | 9.22251 | 6996 ft | 274 kts | 314° |
| 2026-04-17 13:10 | 49.95146 | 9.20225 | 6319 ft | 273 kts | 314° |
| 2026-04-17 13:10 | 49.96192 | 9.18557 | 5735 ft | 271 kts | 314° |
| 2026-04-17 13:10 | 49.97494 | 9.16483 | 5231 ft | 261 kts | 314° |
| 2026-04-17 13:11 | 49.98773 | 9.14444 | 5056 ft | 271 kts | 314° |
| 2026-04-17 13:11 | 50.00083 | 9.12361 | 5011 ft | 268 kts | 314° |
| 2026-04-17 13:11 | 50.01380 | 9.10294 | 4791 ft | 265 kts | 314° |
| 2026-04-17 13:11 | 50.02667 | 9.08251 | 4271 ft | 263 kts | 314° |
| 2026-04-17 13:12 | 50.03959 | 9.06199 | 4070 ft | 266 kts | 314° |
| 2026-04-17 13:12 | 50.06462 | 9.01977 | 4004 ft | 265 kts | 306° |
| 2026-04-17 13:12 | 50.07512 | 8.99615 | 4003 ft | 264 kts | 304° |
| 2026-04-17 13:13 | 50.08525 | 8.97315 | 4003 ft | 247 kts | 303° |
| 2026-04-17 13:13 | 50.09449 | 8.95235 | 4003 ft | 228 kts | 303° |
| 2026-04-17 13:13 | 50.10374 | 8.93150 | 3999 ft | 234 kts | 304° |
| 2026-04-17 13:13 | 50.11296 | 8.91069 | 4008 ft | 233 kts | 303° |
| 2026-04-17 13:14 | 50.12212 | 8.89013 | 3994 ft | 231 kts | 304° |
| 2026-04-17 13:14 | 50.13054 | 8.86872 | 4037 ft | 233 kts | 290° |
| 2026-04-17 13:14 | 50.13139 | 8.84397 | 4140 ft | 230 kts | 260° |
| 2026-04-17 13:14 | 50.13009 | 8.81914 | 4252 ft | 231 kts | 273° |
| 2026-04-17 13:15 | 50.13417 | 8.79520 | 4134 ft | 236 kts | 295° |
| 2026-04-17 13:15 | 50.14392 | 8.77511 | 3983 ft | 229 kts | 310° |
| 2026-04-17 13:15 | 50.15633 | 8.75871 | 4002 ft | 236 kts | 323° |
| 2026-04-17 13:15 | 50.16982 | 8.74396 | 3992 ft | 235 kts | 324° |
| 2026-04-17 13:16 | 50.18319 | 8.72930 | 4015 ft | 236 kts | 323° |
| 2026-04-17 13:16 | 50.19655 | 8.71466 | 3995 ft | 233 kts | 323° |
| 2026-04-17 13:16 | 50.21012 | 8.70104 | 4007 ft | 237 kts | 334° |
| 2026-04-17 13:16 | 50.22629 | 8.69655 | 4010 ft | 239 kts | 3° |
| 2026-04-17 13:17 | 50.24182 | 8.70502 | 3997 ft | 239 kts | 33° |
| 2026-04-17 13:17 | 50.25276 | 8.72423 | 4007 ft | 240 kts | 63° |
| 2026-04-17 13:17 | 50.25641 | 8.74925 | 4007 ft | 236 kts | 94° |
| 2026-04-17 13:17 | 50.25339 | 8.77433 | 4004 ft | 234 kts | 104° |
| 2026-04-17 13:18 | 50.25008 | 8.79833 | 4005 ft | 217 kts | 103° |
| 2026-04-17 13:18 | 50.24704 | 8.82059 | 4013 ft | 212 kts | 104° |
| 2026-04-17 13:18 | 50.24389 | 8.84356 | 4003 ft | 214 kts | 103° |
| 2026-04-17 13:18 | 50.24065 | 8.86637 | 3999 ft | 216 kts | 104° |
| 2026-04-17 13:19 | 50.23748 | 8.88896 | 3987 ft | 214 kts | 103° |
| 2026-04-17 13:19 | 50.23426 | 8.91175 | 4004 ft | 216 kts | 104° |
| 2026-04-17 13:19 | 50.23105 | 8.93466 | 4006 ft | 215 kts | 104° |
| 2026-04-17 13:19 | 50.22783 | 8.95748 | 4003 ft | 214 kts | 104° |
| 2026-04-17 13:20 | 50.22472 | 8.97958 | 4016 ft | 200 kts | 103° |
| 2026-04-17 13:20 | 50.22187 | 8.99989 | 4013 ft | 187 kts | 104° |
| 2026-04-17 13:20 | 50.21838 | 9.02008 | 3994 ft | 194 kts | 115° |
| 2026-04-17 13:20 | 50.20969 | 9.03555 | 4010 ft | 191 kts | 149° |
| 2026-04-17 13:21 | 50.19731 | 9.04284 | 4000 ft | 191 kts | 164° |
| 2026-04-17 13:21 | 50.18478 | 9.04899 | 4008 ft | 188 kts | 163° |
| 2026-04-17 13:21 | 50.17186 | 9.05106 | 4007 ft | 189 kts | 191° |
| 2026-04-17 13:21 | 50.16040 | 9.04188 | 4030 ft | 187 kts | 219° |
| 2026-04-17 13:22 | 50.15078 | 9.02802 | 4005 ft | 187 kts | 228° |
| 2026-04-17 13:22 | 50.14330 | 9.01214 | 4007 ft | 184 kts | 239° |
| 2026-04-17 13:22 | 50.13760 | 8.99393 | 4001 ft | 188 kts | 248° |
| 2026-04-17 13:22 | 50.13289 | 8.97486 | 4001 ft | 188 kts | 250° |
| 2026-04-17 13:23 | 50.12835 | 8.95571 | 4000 ft | 187 kts | 249° |
| 2026-04-17 13:23 | 50.12381 | 8.93689 | 4002 ft | 188 kts | 249° |
| 2026-04-17 13:23 | 50.11924 | 8.91774 | 4008 ft | 188 kts | 249° |
| 2026-04-17 13:23 | 50.11468 | 8.89871 | 4000 ft | 186 kts | 249° |
| 2026-04-17 13:24 | 50.11023 | 8.88012 | 3937 ft | 178 kts | 249° |
| 2026-04-17 13:24 | 50.10603 | 8.86250 | 3764 ft | 173 kts | 249° |
| 2026-04-17 13:24 | 50.10181 | 8.84487 | 3695 ft | 180 kts | 249° |
| 2026-04-17 13:24 | 50.09741 | 8.82647 | 3508 ft | 179 kts | 249° |
| 2026-04-17 13:25 | 50.09312 | 8.80844 | 3305 ft | 176 kts | 249° |
| 2026-04-17 13:25 | 50.08888 | 8.79066 | 3099 ft | 174 kts | 249° |
| 2026-04-17 13:25 | 50.08477 | 8.77347 | 2998 ft | 168 kts | 249° |
| 2026-04-17 13:25 | 50.08076 | 8.75669 | 2850 ft | 164 kts | 250° |
| 2026-04-17 13:26 | 50.07687 | 8.73970 | 2494 ft | 165 kts | 250° |
| 2026-04-17 13:26 | 50.07303 | 8.72292 | 2098 ft | 163 kts | 249° |
| 2026-04-17 13:26 | 50.06922 | 8.70679 | 1806 ft | 155 kts | 249° |
| 2026-04-17 13:26 | 50.06551 | 8.69147 | 1571 ft | 147 kts | 249° |
| 2026-04-17 13:27 | 50.06214 | 8.67720 | 1377 ft | 139 kts | 249° |
| 2026-04-17 13:27 | 50.05861 | 8.66282 | 1290 ft | 147 kts | 249° |
| 2026-04-17 13:27 | 50.05506 | 8.64800 | 1182 ft | 141 kts | 250° |
| 2026-04-17 13:27 | 50.05176 | 8.63420 | 1021 ft | 130 kts | 250° |
| 2026-04-17 13:28 | 50.04822 | 8.61992 | 893 ft | 153 kts | 250° |
| 2026-04-17 13:28 | 50.04432 | 8.60450 | 661 ft | 154 kts | 250° |
| 2026-04-17 13:28 | 50.04070 | 8.58949 | 450 ft | 141 kts | 251° |
| 2026-04-17 13:28 | 50.03756 | 8.57606 | 374 ft | 111 kts | 250° |
| 2026-04-17 13:29 | 50.03532 | 8.56663 | 369 ft | 78 kts | 249° |
| 2026-04-17 13:29 | 50.03433 | 8.56092 | 370 ft | 27 kts | 277° |
| 2026-04-17 13:29 | 50.03442 | 8.56011 | 367 ft | 0 kts | 280° |
| 2026-04-17 13:29 | 50.03442 | 8.56010 | 367 ft | 1 kts | 280° |
| 2026-04-17 13:30 | 50.03453 | 8.55922 | 363 ft | 15 kts | 280° |
| 2026-04-17 13:30 | 50.03475 | 8.55717 | 361 ft | 23 kts | 278° |
| 2026-04-17 13:30 | 50.03480 | 8.55426 | 353 ft | 32 kts | 256° |
| 2026-04-17 13:30 | 50.03398 | 8.55075 | 356 ft | 37 kts | 250° |
| 2026-04-17 13:31 | 50.03302 | 8.54676 | 358 ft | 41 kts | 249° |
| 2026-04-17 13:31 | 50.03309 | 8.54486 | 355 ft | 14 kts | 313° |
| 2026-04-17 13:31 | 50.03342 | 8.54464 | 361 ft | 0 kts | 342° |
| 2026-04-17 13:33 | 50.03363 | 8.54454 | 358 ft | 10 kts | 342° |
| 2026-04-17 13:33 | 50.03495 | 8.54377 | 362 ft | 30 kts | 338° |
| 2026-04-17 13:34 | 50.03640 | 8.54318 | 361 ft | 14 kts | 12° |
| 2026-04-17 13:34 | 50.03680 | 8.54399 | 362 ft | 0 kts | 63° |
| 2026-04-17 13:35 | 50.03691 | 8.54443 | 361 ft | 13 kts | 68° |
| 2026-04-17 13:35 | 50.03735 | 8.54626 | 358 ft | 17 kts | 69° |
| 2026-04-17 13:36 | 50.03798 | 8.54907 | 361 ft | 37 kts | 71° |
| 2026-04-17 13:36 | 50.03908 | 8.55351 | 361 ft | 51 kts | 70° |
| 2026-04-17 13:36 | 50.04028 | 8.55860 | 368 ft | 34 kts | 68° |
| 2026-04-17 13:36 | 50.04095 | 8.55994 | 363 ft | 12 kts | 20° |
| 2026-04-17 13:37 | 50.04179 | 8.55934 | 365 ft | 17 kts | 333° |
| 2026-04-17 13:37 | 50.04317 | 8.55945 | 363 ft | 25 kts | 348° |
| 2026-04-17 13:37 | 50.04513 | 8.55912 | 368 ft | 27 kts | 21° |
| 2026-04-17 13:37 | 50.04582 | 8.56014 | 373 ft | 10 kts | 64° |
| 2026-04-17 13:38 | 50.04631 | 8.56084 | 371 ft | 7 kts | 5° |
| 2026-04-17 13:38 | 50.04675 | 8.56046 | 369 ft | 2 kts | 335° |
| 2026-04-17 13:38 | 50.04676 | 8.56045 | 369 ft | 0 kts | 336° |